sensor_id;sensor_type;location;lat;lon;timestamp;P1;durP1;ratioP1;P2;durP2;ratioP2
58384;SDS011;44185;47.844;8.966;2023-07-02T00:02:21;2.17;;;1.67;;
58384;SDS011;44185;47.844;8.966;2023-07-02T00:04:47;1.58;;;1.30;;
58384;SDS011;44185;47.844;8.966;2023-07-02T00:07:12;1.80;;;1.40;;
58384;SDS011;44185;47.844;8.966;2023-07-02T00:09:39;2.22;;;1.60;;
58384;SDS011;44185;47.844;8.966;2023-07-02T00:12:07;1.70;;;1.60;;
58384;SDS011;44185;47.844;8.966;2023-07-02T00:14:33;1.88;;;1.70;;
58384;SDS011;44185;47.844;8.966;2023-07-02T00:16:59;1.65;;;1.55;;
58384;SDS011;44185;47.844;8.966;2023-07-02T00:19:24;3.28;;;1.70;;
58384;SDS011;44185;47.844;8.966;2023-07-02T00:21:50;2.55;;;2.20;;
58384;SDS011;44185;47.844;8.966;2023-07-02T00:24:16;2.10;;;1.48;;
58384;SDS011;44185;47.844;8.966;2023-07-02T00:26:42;2.08;;;1.98;;
58384;SDS011;44185;47.844;8.966;2023-07-02T00:29:09;2.97;;;1.90;;
58384;SDS011;44185;47.844;8.966;2023-07-02T00:31:35;2.55;;;2.08;;
58384;SDS011;44185;47.844;8.966;2023-07-02T00:34:00;3.30;;;2.03;;
58384;SDS011;44185;47.844;8.966;2023-07-02T00:36:26;2.35;;;2.15;;
58384;SDS011;44185;47.844;8.966;2023-07-02T00:38:52;1.95;;;1.77;;
58384;SDS011;44185;47.844;8.966;2023-07-02T00:41:18;2.35;;;2.03;;
58384;SDS011;44185;47.844;8.966;2023-07-02T00:43:43;2.80;;;2.10;;
58384;SDS011;44185;47.844;8.966;2023-07-02T00:46:10;2.65;;;2.05;;
58384;SDS011;44185;47.844;8.966;2023-07-02T00:48:38;2.50;;;2.30;;
58384;SDS011;44185;47.844;8.966;2023-07-02T00:51:04;2.38;;;1.90;;
58384;SDS011;44185;47.844;8.966;2023-07-02T00:53:30;2.05;;;1.85;;
58384;SDS011;44185;47.844;8.966;2023-07-02T00:55:56;3.83;;;1.98;;
58384;SDS011;44185;47.844;8.966;2023-07-02T00:58:22;3.35;;;2.20;;
58384;SDS011;44185;47.844;8.966;2023-07-02T01:00:47;2.00;;;1.80;;
58384;SDS011;44185;47.844;8.966;2023-07-02T01:03:14;4.80;;;2.40;;
58384;SDS011;44185;47.844;8.966;2023-07-02T01:05:40;2.00;;;1.80;;
58384;SDS011;44185;47.844;8.966;2023-07-02T01:08:05;2.17;;;1.77;;
58384;SDS011;44185;47.844;8.966;2023-07-02T01:10:31;2.22;;;2.05;;
58384;SDS011;44185;47.844;8.966;2023-07-02T01:12:57;4.45;;;2.28;;
58384;SDS011;44185;47.844;8.966;2023-07-02T01:15:25;2.10;;;1.90;;
58384;SDS011;44185;47.844;8.966;2023-07-02T01:17:51;2.05;;;1.83;;
58384;SDS011;44185;47.844;8.966;2023-07-02T01:20:18;5.22;;;2.13;;
58384;SDS011;44185;47.844;8.966;2023-07-02T01:22:44;2.17;;;1.95;;
58384;SDS011;44185;47.844;8.966;2023-07-02T01:25:11;2.65;;;2.20;;
58384;SDS011;44185;47.844;8.966;2023-07-02T01:27:37;2.08;;;1.90;;
58384;SDS011;44185;47.844;8.966;2023-07-02T01:30:03;3.20;;;2.25;;
58384;SDS011;44185;47.844;8.966;2023-07-02T01:32:29;2.33;;;2.10;;
58384;SDS011;44185;47.844;8.966;2023-07-02T01:34:55;2.60;;;2.00;;
58384;SDS011;44185;47.844;8.966;2023-07-02T01:37:22;2.30;;;1.67;;
58384;SDS011;44185;47.844;8.966;2023-07-02T01:39:47;3.65;;;2.05;;
58384;SDS011;44185;47.844;8.966;2023-07-02T01:42:13;3.78;;;2.10;;
58384;SDS011;44185;47.844;8.966;2023-07-02T01:44:40;2.75;;;2.10;;
58384;SDS011;44185;47.844;8.966;2023-07-02T01:47:05;2.20;;;2.00;;
58384;SDS011;44185;47.844;8.966;2023-07-02T01:49:31;1.70;;;1.60;;
58384;SDS011;44185;47.844;8.966;2023-07-02T01:51:57;2.15;;;1.83;;
58384;SDS011;44185;47.844;8.966;2023-07-02T01:54:24;2.42;;;1.88;;
58384;SDS011;44185;47.844;8.966;2023-07-02T01:56:51;3.03;;;1.95;;
58384;SDS011;44185;47.844;8.966;2023-07-02T01:59:16;2.88;;;2.10;;
58384;SDS011;44185;47.844;8.966;2023-07-02T02:01:42;2.55;;;2.00;;
58384;SDS011;44185;47.844;8.966;2023-07-02T02:04:09;3.70;;;2.00;;
58384;SDS011;44185;47.844;8.966;2023-07-02T02:06:36;2.13;;;1.75;;
58384;SDS011;44185;47.844;8.966;2023-07-02T02:09:03;3.35;;;2.10;;
58384;SDS011;44185;47.844;8.966;2023-07-02T02:11:30;3.50;;;1.88;;
58384;SDS011;44185;47.844;8.966;2023-07-02T02:13:56;2.95;;;2.05;;
58384;SDS011;44185;47.844;8.966;2023-07-02T02:16:22;3.65;;;1.92;;
58384;SDS011;44185;47.844;8.966;2023-07-02T02:18:48;2.42;;;2.05;;
58384;SDS011;44185;47.844;8.966;2023-07-02T02:21:16;4.82;;;1.90;;
58384;SDS011;44185;47.844;8.966;2023-07-02T02:23:42;2.35;;;1.90;;
58384;SDS011;44185;47.844;8.966;2023-07-02T02:26:08;2.33;;;1.90;;
58384;SDS011;44185;47.844;8.966;2023-07-02T02:28:35;3.97;;;2.10;;
58384;SDS011;44185;47.844;8.966;2023-07-02T02:31:01;3.78;;;2.05;;
58384;SDS011;44185;47.844;8.966;2023-07-02T02:33:26;3.53;;;1.92;;
58384;SDS011;44185;47.844;8.966;2023-07-02T02:35:51;2.72;;;2.03;;
58384;SDS011;44185;47.844;8.966;2023-07-02T02:38:17;2.80;;;2.33;;
58384;SDS011;44185;47.844;8.966;2023-07-02T02:40:43;4.73;;;2.40;;
58384;SDS011;44185;47.844;8.966;2023-07-02T02:43:08;3.10;;;2.17;;
58384;SDS011;44185;47.844;8.966;2023-07-02T02:45:35;2.50;;;2.30;;
58384;SDS011;44185;47.844;8.966;2023-07-02T02:48:01;3.80;;;2.40;;
58384;SDS011;44185;47.844;8.966;2023-07-02T02:50:26;3.75;;;2.53;;
58384;SDS011;44185;47.844;8.966;2023-07-02T02:52:52;3.83;;;2.20;;
58384;SDS011;44185;47.844;8.966;2023-07-02T02:55:18;2.97;;;2.30;;
58384;SDS011;44185;47.844;8.966;2023-07-02T02:57:44;2.72;;;2.22;;
58384;SDS011;44185;47.844;8.966;2023-07-02T03:00:10;2.90;;;2.60;;
58384;SDS011;44185;47.844;8.966;2023-07-02T03:02:37;4.82;;;3.33;;
58384;SDS011;44185;47.844;8.966;2023-07-02T03:05:03;10.57;;;2.90;;
58384;SDS011;44185;47.844;8.966;2023-07-02T03:07:29;4.38;;;2.90;;
58384;SDS011;44185;47.844;8.966;2023-07-02T03:09:55;5.03;;;2.97;;
58384;SDS011;44185;47.844;8.966;2023-07-02T03:12:23;6.72;;;3.00;;
58384;SDS011;44185;47.844;8.966;2023-07-02T03:14:50;4.38;;;2.97;;
58384;SDS011;44185;47.844;8.966;2023-07-02T03:17:15;4.53;;;3.00;;
58384;SDS011;44185;47.844;8.966;2023-07-02T03:19:42;6.57;;;3.40;;
58384;SDS011;44185;47.844;8.966;2023-07-02T03:22:08;6.82;;;3.15;;
58384;SDS011;44185;47.844;8.966;2023-07-02T03:24:33;6.10;;;3.30;;
58384;SDS011;44185;47.844;8.966;2023-07-02T03:27:01;7.28;;;3.47;;
58384;SDS011;44185;47.844;8.966;2023-07-02T03:29:27;5.20;;;3.42;;
58384;SDS011;44185;47.844;8.966;2023-07-02T03:31:57;4.78;;;3.60;;
58384;SDS011;44185;47.844;8.966;2023-07-02T03:34:23;8.13;;;4.05;;
58384;SDS011;44185;47.844;8.966;2023-07-02T03:36:50;4.75;;;3.42;;
58384;SDS011;44185;47.844;8.966;2023-07-02T03:39:15;6.43;;;3.70;;
58384;SDS011;44185;47.844;8.966;2023-07-02T03:41:41;6.78;;;3.83;;
58384;SDS011;44185;47.844;8.966;2023-07-02T03:44:06;7.03;;;3.88;;
58384;SDS011;44185;47.844;8.966;2023-07-02T03:46:32;5.78;;;3.78;;
58384;SDS011;44185;47.844;8.966;2023-07-02T03:48:58;5.15;;;3.67;;
58384;SDS011;44185;47.844;8.966;2023-07-02T03:51:26;5.93;;;3.55;;
58384;SDS011;44185;47.844;8.966;2023-07-02T03:53:54;6.05;;;3.60;;
58384;SDS011;44185;47.844;8.966;2023-07-02T03:56:20;8.65;;;3.80;;
58384;SDS011;44185;47.844;8.966;2023-07-02T03:58:48;6.68;;;3.70;;
58384;SDS011;44185;47.844;8.966;2023-07-02T04:01:17;10.15;;;4.38;;
58384;SDS011;44185;47.844;8.966;2023-07-02T04:03:47;6.57;;;4.00;;
58384;SDS011;44185;47.844;8.966;2023-07-02T04:06:13;7.15;;;3.78;;
58384;SDS011;44185;47.844;8.966;2023-07-02T04:08:41;6.65;;;3.40;;
58384;SDS011;44185;47.844;8.966;2023-07-02T04:11:09;6.07;;;3.60;;
58384;SDS011;44185;47.844;8.966;2023-07-02T04:13:38;7.88;;;3.90;;
58384;SDS011;44185;47.844;8.966;2023-07-02T04:16:03;8.50;;;4.20;;
58384;SDS011;44185;47.844;8.966;2023-07-02T04:18:29;6.15;;;3.63;;
58384;SDS011;44185;47.844;8.966;2023-07-02T04:20:55;7.43;;;3.63;;
58384;SDS011;44185;47.844;8.966;2023-07-02T04:23:21;6.97;;;4.10;;
58384;SDS011;44185;47.844;8.966;2023-07-02T04:25:46;6.88;;;3.95;;
58384;SDS011;44185;47.844;8.966;2023-07-02T04:28:13;7.75;;;4.03;;
58384;SDS011;44185;47.844;8.966;2023-07-02T04:30:39;8.60;;;3.88;;
58384;SDS011;44185;47.844;8.966;2023-07-02T04:33:06;5.78;;;3.92;;
58384;SDS011;44185;47.844;8.966;2023-07-02T04:35:32;6.82;;;3.70;;
58384;SDS011;44185;47.844;8.966;2023-07-02T04:37:59;6.43;;;3.75;;
58384;SDS011;44185;47.844;8.966;2023-07-02T04:40:25;10.40;;;4.20;;
58384;SDS011;44185;47.844;8.966;2023-07-02T04:42:50;6.63;;;3.53;;
58384;SDS011;44185;47.844;8.966;2023-07-02T04:45:20;6.40;;;3.63;;
58384;SDS011;44185;47.844;8.966;2023-07-02T04:47:45;7.50;;;3.67;;
58384;SDS011;44185;47.844;8.966;2023-07-02T04:50:11;7.55;;;4.15;;
58384;SDS011;44185;47.844;8.966;2023-07-02T04:52:36;8.07;;;3.85;;
58384;SDS011;44185;47.844;8.966;2023-07-02T04:55:02;10.68;;;4.10;;
58384;SDS011;44185;47.844;8.966;2023-07-02T04:57:28;7.65;;;3.70;;
58384;SDS011;44185;47.844;8.966;2023-07-02T04:59:54;6.88;;;3.70;;
58384;SDS011;44185;47.844;8.966;2023-07-02T05:02:22;6.60;;;3.63;;
58384;SDS011;44185;47.844;8.966;2023-07-02T05:04:48;9.07;;;3.73;;
58384;SDS011;44185;47.844;8.966;2023-07-02T05:07:13;7.28;;;3.80;;
58384;SDS011;44185;47.844;8.966;2023-07-02T05:09:41;8.80;;;3.78;;
58384;SDS011;44185;47.844;8.966;2023-07-02T05:12:08;6.63;;;3.90;;
58384;SDS011;44185;47.844;8.966;2023-07-02T05:14:34;7.13;;;3.70;;
58384;SDS011;44185;47.844;8.966;2023-07-02T05:16:59;7.10;;;3.92;;
58384;SDS011;44185;47.844;8.966;2023-07-02T05:19:26;7.18;;;3.58;;
58384;SDS011;44185;47.844;8.966;2023-07-02T05:21:54;7.45;;;3.72;;
58384;SDS011;44185;47.844;8.966;2023-07-02T05:24:19;7.18;;;3.78;;
58384;SDS011;44185;47.844;8.966;2023-07-02T05:26:45;7.47;;;3.63;;
58384;SDS011;44185;47.844;8.966;2023-07-02T05:29:10;6.70;;;3.75;;
58384;SDS011;44185;47.844;8.966;2023-07-02T05:31:36;9.82;;;4.35;;
58384;SDS011;44185;47.844;8.966;2023-07-02T05:34:03;8.32;;;4.07;;
58384;SDS011;44185;47.844;8.966;2023-07-02T05:36:30;8.43;;;3.63;;
58384;SDS011;44185;47.844;8.966;2023-07-02T05:38:56;6.85;;;4.03;;
58384;SDS011;44185;47.844;8.966;2023-07-02T05:41:21;8.45;;;4.32;;
58384;SDS011;44185;47.844;8.966;2023-07-02T05:43:47;7.35;;;3.97;;
58384;SDS011;44185;47.844;8.966;2023-07-02T05:46:15;8.13;;;3.90;;
58384;SDS011;44185;47.844;8.966;2023-07-02T05:48:41;9.23;;;4.28;;
58384;SDS011;44185;47.844;8.966;2023-07-02T05:51:07;8.68;;;4.45;;
58384;SDS011;44185;47.844;8.966;2023-07-02T05:53:34;11.45;;;4.45;;
58384;SDS011;44185;47.844;8.966;2023-07-02T05:55:59;10.70;;;4.50;;
58384;SDS011;44185;47.844;8.966;2023-07-02T05:58:25;10.40;;;4.37;;
58384;SDS011;44185;47.844;8.966;2023-07-02T06:00:50;8.57;;;4.05;;
58384;SDS011;44185;47.844;8.966;2023-07-02T06:03:16;10.35;;;4.53;;
58384;SDS011;44185;47.844;8.966;2023-07-02T06:05:41;13.38;;;5.65;;
58384;SDS011;44185;47.844;8.966;2023-07-02T06:08:07;12.90;;;5.70;;
58384;SDS011;44185;47.844;8.966;2023-07-02T06:10:34;14.02;;;5.70;;
58384;SDS011;44185;47.844;8.966;2023-07-02T06:13:00;11.60;;;5.07;;
58384;SDS011;44185;47.844;8.966;2023-07-02T06:15:25;13.27;;;5.90;;
58384;SDS011;44185;47.844;8.966;2023-07-02T06:17:54;13.30;;;5.78;;
58384;SDS011;44185;47.844;8.966;2023-07-02T06:20:19;18.23;;;6.43;;
58384;SDS011;44185;47.844;8.966;2023-07-02T06:22:44;12.73;;;6.00;;
58384;SDS011;44185;47.844;8.966;2023-07-02T06:25:10;13.18;;;6.18;;
58384;SDS011;44185;47.844;8.966;2023-07-02T06:27:37;13.57;;;6.50;;
58384;SDS011;44185;47.844;8.966;2023-07-02T06:30:02;17.60;;;6.65;;
58384;SDS011;44185;47.844;8.966;2023-07-02T06:32:28;14.52;;;6.65;;
58384;SDS011;44185;47.844;8.966;2023-07-02T06:34:54;15.32;;;6.63;;
58384;SDS011;44185;47.844;8.966;2023-07-02T06:37:19;15.80;;;6.93;;
58384;SDS011;44185;47.844;8.966;2023-07-02T06:39:44;17.15;;;7.13;;
58384;SDS011;44185;47.844;8.966;2023-07-02T06:42:10;19.30;;;8.18;;
58384;SDS011;44185;47.844;8.966;2023-07-02T06:44:37;18.55;;;7.78;;
58384;SDS011;44185;47.844;8.966;2023-07-02T06:47:02;18.10;;;8.85;;
58384;SDS011;44185;47.844;8.966;2023-07-02T06:49:28;19.38;;;8.25;;
58384;SDS011;44185;47.844;8.966;2023-07-02T06:51:53;19.42;;;8.68;;
58384;SDS011;44185;47.844;8.966;2023-07-02T06:54:19;20.10;;;8.70;;
58384;SDS011;44185;47.844;8.966;2023-07-02T06:56:44;19.50;;;9.35;;
58384;SDS011;44185;47.844;8.966;2023-07-02T06:59:09;21.67;;;9.05;;
58384;SDS011;44185;47.844;8.966;2023-07-02T07:01:36;17.80;;;8.55;;
58384;SDS011;44185;47.844;8.966;2023-07-02T07:04:02;20.20;;;8.77;;
58384;SDS011;44185;47.844;8.966;2023-07-02T07:06:27;21.42;;;8.43;;
58384;SDS011;44185;47.844;8.966;2023-07-02T07:08:53;19.15;;;8.90;;
58384;SDS011;44185;47.844;8.966;2023-07-02T07:11:19;23.73;;;9.85;;
58384;SDS011;44185;47.844;8.966;2023-07-02T07:13:44;22.45;;;9.32;;
58384;SDS011;44185;47.844;8.966;2023-07-02T07:16:10;19.13;;;7.82;;
58384;SDS011;44185;47.844;8.966;2023-07-02T07:18:37;22.35;;;9.20;;
58384;SDS011;44185;47.844;8.966;2023-07-02T07:21:03;20.38;;;8.95;;
58384;SDS011;44185;47.844;8.966;2023-07-02T07:23:28;19.75;;;8.57;;
58384;SDS011;44185;47.844;8.966;2023-07-02T07:25:53;19.60;;;8.90;;
58384;SDS011;44185;47.844;8.966;2023-07-02T07:28:19;19.65;;;8.63;;
58384;SDS011;44185;47.844;8.966;2023-07-02T07:30:44;20.38;;;8.15;;
58384;SDS011;44185;47.844;8.966;2023-07-02T07:33:10;20.23;;;7.90;;
58384;SDS011;44185;47.844;8.966;2023-07-02T07:35:37;23.50;;;10.02;;
58384;SDS011;44185;47.844;8.966;2023-07-02T07:38:03;20.15;;;7.47;;
58384;SDS011;44185;47.844;8.966;2023-07-02T07:40:28;23.05;;;9.73;;
58384;SDS011;44185;47.844;8.966;2023-07-02T07:42:54;21.45;;;8.73;;
58384;SDS011;44185;47.844;8.966;2023-07-02T07:45:19;24.45;;;9.23;;
58384;SDS011;44185;47.844;8.966;2023-07-02T07:47:45;19.85;;;7.15;;
58384;SDS011;44185;47.844;8.966;2023-07-02T07:50:10;18.23;;;8.30;;
58384;SDS011;44185;47.844;8.966;2023-07-02T07:52:38;22.23;;;8.73;;
58384;SDS011;44185;47.844;8.966;2023-07-02T07:55:04;23.80;;;10.43;;
58384;SDS011;44185;47.844;8.966;2023-07-02T07:57:29;20.98;;;9.75;;
58384;SDS011;44185;47.844;8.966;2023-07-02T07:59:55;23.50;;;10.05;;
58384;SDS011;44185;47.844;8.966;2023-07-02T08:02:20;20.88;;;9.27;;
58384;SDS011;44185;47.844;8.966;2023-07-02T08:04:46;24.58;;;9.70;;
58384;SDS011;44185;47.844;8.966;2023-07-02T08:07:11;22.50;;;9.82;;
58384;SDS011;44185;47.844;8.966;2023-07-02T08:09:38;20.55;;;8.60;;
58384;SDS011;44185;47.844;8.966;2023-07-02T08:12:04;23.30;;;10.30;;
58384;SDS011;44185;47.844;8.966;2023-07-02T08:14:29;26.63;;;11.32;;
58384;SDS011;44185;47.844;8.966;2023-07-02T08:16:55;20.88;;;9.57;;
58384;SDS011;44185;47.844;8.966;2023-07-02T08:19:20;22.52;;;10.50;;
58384;SDS011;44185;47.844;8.966;2023-07-02T08:21:45;25.20;;;11.50;;
58384;SDS011;44185;47.844;8.966;2023-07-02T08:24:11;23.67;;;10.48;;
58384;SDS011;44185;47.844;8.966;2023-07-02T08:26:38;23.27;;;10.47;;
58384;SDS011;44185;47.844;8.966;2023-07-02T08:29:03;26.05;;;10.25;;
58384;SDS011;44185;47.844;8.966;2023-07-02T08:31:29;20.30;;;8.55;;
58384;SDS011;44185;47.844;8.966;2023-07-02T08:33:54;21.65;;;8.98;;
58384;SDS011;44185;47.844;8.966;2023-07-02T08:36:20;25.30;;;9.35;;
58384;SDS011;44185;47.844;8.966;2023-07-02T08:38:45;21.73;;;9.35;;
58384;SDS011;44185;47.844;8.966;2023-07-02T08:41:11;24.13;;;10.43;;
58384;SDS011;44185;47.844;8.966;2023-07-02T08:43:39;27.60;;;11.02;;
58384;SDS011;44185;47.844;8.966;2023-07-02T08:46:05;24.70;;;10.60;;
58384;SDS011;44185;47.844;8.966;2023-07-02T08:48:31;16.77;;;7.00;;
58384;SDS011;44185;47.844;8.966;2023-07-02T08:50:56;22.25;;;11.65;;
58384;SDS011;44185;47.844;8.966;2023-07-02T08:53:21;25.70;;;10.75;;
58384;SDS011;44185;47.844;8.966;2023-07-02T08:55:47;24.00;;;11.27;;
58384;SDS011;44185;47.844;8.966;2023-07-02T08:58:14;21.40;;;9.00;;
58384;SDS011;44185;47.844;8.966;2023-07-02T09:00:40;21.27;;;10.52;;
58384;SDS011;44185;47.844;8.966;2023-07-02T09:03:26;24.08;;;11.57;;
58384;SDS011;44185;47.844;8.966;2023-07-02T09:05:51;24.17;;;11.23;;
58384;SDS011;44185;47.844;8.966;2023-07-02T09:08:22;23.05;;;11.25;;
58384;SDS011;44185;47.844;8.966;2023-07-02T09:10:48;27.02;;;11.10;;
58384;SDS011;44185;47.844;8.966;2023-07-02T09:13:13;23.67;;;11.45;;
58384;SDS011;44185;47.844;8.966;2023-07-02T09:15:40;24.23;;;11.30;;
58384;SDS011;44185;47.844;8.966;2023-07-02T09:18:16;25.60;;;11.90;;
58384;SDS011;44185;47.844;8.966;2023-07-02T09:20:45;21.70;;;11.30;;
58384;SDS011;44185;47.844;8.966;2023-07-02T09:23:10;19.43;;;8.23;;
58384;SDS011;44185;47.844;8.966;2023-07-02T09:25:36;22.27;;;9.80;;
58384;SDS011;44185;47.844;8.966;2023-07-02T09:28:13;21.77;;;9.18;;
58384;SDS011;44185;47.844;8.966;2023-07-02T09:30:49;22.05;;;9.75;;
58384;SDS011;44185;47.844;8.966;2023-07-02T09:33:19;23.45;;;10.98;;
58384;SDS011;44185;47.844;8.966;2023-07-02T09:35:44;24.60;;;10.65;;
58384;SDS011;44185;47.844;8.966;2023-07-02T09:38:10;18.65;;;8.25;;
58384;SDS011;44185;47.844;8.966;2023-07-02T09:40:36;22.70;;;10.10;;
58384;SDS011;44185;47.844;8.966;2023-07-02T09:43:10;16.48;;;7.57;;
58384;SDS011;44185;47.844;8.966;2023-07-02T09:45:36;20.13;;;9.07;;
58384;SDS011;44185;47.844;8.966;2023-07-02T09:48:03;17.70;;;7.95;;
58384;SDS011;44185;47.844;8.966;2023-07-02T09:50:31;20.02;;;8.13;;
58384;SDS011;44185;47.844;8.966;2023-07-02T09:52:57;20.00;;;9.00;;
58384;SDS011;44185;47.844;8.966;2023-07-02T09:55:23;20.33;;;8.57;;
58384;SDS011;44185;47.844;8.966;2023-07-02T09:57:49;24.70;;;10.02;;
58384;SDS011;44185;47.844;8.966;2023-07-02T10:00:14;21.70;;;9.15;;
58384;SDS011;44185;47.844;8.966;2023-07-02T10:02:41;22.38;;;10.32;;
58384;SDS011;44185;47.844;8.966;2023-07-02T10:05:08;22.75;;;9.30;;
58384;SDS011;44185;47.844;8.966;2023-07-02T10:07:33;22.08;;;9.55;;
58384;SDS011;44185;47.844;8.966;2023-07-02T10:09:58;18.58;;;8.00;;
58384;SDS011;44185;47.844;8.966;2023-07-02T10:12:24;15.50;;;7.53;;
58384;SDS011;44185;47.844;8.966;2023-07-02T10:14:51;20.55;;;8.55;;
58384;SDS011;44185;47.844;8.966;2023-07-02T10:17:24;21.08;;;8.85;;
58384;SDS011;44185;47.844;8.966;2023-07-02T10:19:51;17.90;;;7.88;;
58384;SDS011;44185;47.844;8.966;2023-07-02T10:22:18;13.90;;;6.70;;
58384;SDS011;44185;47.844;8.966;2023-07-02T10:24:50;20.73;;;8.45;;
58384;SDS011;44185;47.844;8.966;2023-07-02T10:27:16;18.10;;;7.45;;
58384;SDS011;44185;47.844;8.966;2023-07-02T10:29:48;16.48;;;6.75;;
58384;SDS011;44185;47.844;8.966;2023-07-02T10:32:14;16.35;;;6.78;;
58384;SDS011;44185;47.844;8.966;2023-07-02T10:34:51;22.33;;;8.68;;
58384;SDS011;44185;47.844;8.966;2023-07-02T10:37:16;19.77;;;8.38;;
58384;SDS011;44185;47.844;8.966;2023-07-02T10:39:43;19.08;;;8.57;;
58384;SDS011;44185;47.844;8.966;2023-07-02T10:42:09;18.40;;;8.40;;
58384;SDS011;44185;47.844;8.966;2023-07-02T10:44:46;14.05;;;6.40;;
58384;SDS011;44185;47.844;8.966;2023-07-02T10:47:13;14.13;;;6.03;;
58384;SDS011;44185;47.844;8.966;2023-07-02T10:49:38;15.82;;;6.18;;
58384;SDS011;44185;47.844;8.966;2023-07-02T10:52:04;14.70;;;6.93;;
58384;SDS011;44185;47.844;8.966;2023-07-02T10:54:41;15.07;;;6.85;;
58384;SDS011;44185;47.844;8.966;2023-07-02T10:57:08;18.15;;;8.43;;
58384;SDS011;44185;47.844;8.966;2023-07-02T10:59:33;15.50;;;6.78;;
58384;SDS011;44185;47.844;8.966;2023-07-02T11:01:59;19.35;;;7.72;;
58384;SDS011;44185;47.844;8.966;2023-07-02T11:04:25;13.90;;;6.68;;
58384;SDS011;44185;47.844;8.966;2023-07-02T11:06:50;13.45;;;6.28;;
58384;SDS011;44185;47.844;8.966;2023-07-02T11:09:16;14.75;;;5.80;;
58384;SDS011;44185;47.844;8.966;2023-07-02T11:11:50;13.20;;;6.13;;
58384;SDS011;44185;47.844;8.966;2023-07-02T11:14:25;16.98;;;7.30;;
58384;SDS011;44185;47.844;8.966;2023-07-02T11:16:53;17.80;;;7.88;;
58384;SDS011;44185;47.844;8.966;2023-07-02T11:19:19;16.13;;;6.78;;
58384;SDS011;44185;47.844;8.966;2023-07-02T11:21:50;17.05;;;7.15;;
58384;SDS011;44185;47.844;8.966;2023-07-02T11:24:16;17.40;;;7.40;;
58384;SDS011;44185;47.844;8.966;2023-07-02T11:26:54;14.35;;;6.43;;
58384;SDS011;44185;47.844;8.966;2023-07-02T11:29:20;14.68;;;6.40;;
58384;SDS011;44185;47.844;8.966;2023-07-02T11:31:45;15.65;;;7.90;;
58384;SDS011;44185;47.844;8.966;2023-07-02T11:34:11;17.08;;;7.43;;
58384;SDS011;44185;47.844;8.966;2023-07-02T11:36:37;14.73;;;7.10;;
58384;SDS011;44185;47.844;8.966;2023-07-02T11:39:03;16.48;;;7.22;;
58384;SDS011;44185;47.844;8.966;2023-07-02T11:41:35;20.48;;;8.50;;
58384;SDS011;44185;47.844;8.966;2023-07-02T11:44:03;18.38;;;8.38;;
58384;SDS011;44185;47.844;8.966;2023-07-02T11:46:28;16.55;;;7.40;;
58384;SDS011;44185;47.844;8.966;2023-07-02T11:48:53;16.67;;;7.60;;
58384;SDS011;44185;47.844;8.966;2023-07-02T11:51:19;16.70;;;7.13;;
58384;SDS011;44185;47.844;8.966;2023-07-02T11:53:44;17.73;;;7.50;;
58384;SDS011;44185;47.844;8.966;2023-07-02T11:56:10;15.55;;;7.00;;
58384;SDS011;44185;47.844;8.966;2023-07-02T11:58:35;16.02;;;7.55;;
58384;SDS011;44185;47.844;8.966;2023-07-02T12:01:02;12.07;;;5.93;;
58384;SDS011;44185;47.844;8.966;2023-07-02T12:03:27;15.75;;;6.70;;
58384;SDS011;44185;47.844;8.966;2023-07-02T12:05:53;15.30;;;6.60;;
58384;SDS011;44185;47.844;8.966;2023-07-02T12:08:18;18.77;;;6.88;;
58384;SDS011;44185;47.844;8.966;2023-07-02T12:10:44;14.50;;;6.57;;
58384;SDS011;44185;47.844;8.966;2023-07-02T12:13:09;13.65;;;6.45;;
58384;SDS011;44185;47.844;8.966;2023-07-02T12:15:34;12.50;;;5.53;;
58384;SDS011;44185;47.844;8.966;2023-07-02T12:18:01;13.77;;;6.30;;
58384;SDS011;44185;47.844;8.966;2023-07-02T12:20:27;14.43;;;5.45;;
58384;SDS011;44185;47.844;8.966;2023-07-02T12:22:52;12.35;;;5.80;;
58384;SDS011;44185;47.844;8.966;2023-07-02T12:25:18;13.55;;;6.30;;
58384;SDS011;44185;47.844;8.966;2023-07-02T12:27:43;12.35;;;5.75;;
58384;SDS011;44185;47.844;8.966;2023-07-02T12:30:09;10.85;;;5.05;;
58384;SDS011;44185;47.844;8.966;2023-07-02T12:32:35;10.90;;;4.97;;
58384;SDS011;44185;47.844;8.966;2023-07-02T12:35:01;11.90;;;5.05;;
58384;SDS011;44185;47.844;8.966;2023-07-02T12:37:27;7.43;;;3.47;;
58384;SDS011;44185;47.844;8.966;2023-07-02T12:39:53;8.80;;;3.95;;
58384;SDS011;44185;47.844;8.966;2023-07-02T12:42:18;8.48;;;3.92;;
58384;SDS011;44185;47.844;8.966;2023-07-02T12:44:44;8.77;;;4.30;;
58384;SDS011;44185;47.844;8.966;2023-07-02T12:47:09;10.00;;;4.57;;
58384;SDS011;44185;47.844;8.966;2023-07-02T12:49:35;11.05;;;4.80;;
58384;SDS011;44185;47.844;8.966;2023-07-02T12:52:02;10.50;;;4.38;;
58384;SDS011;44185;47.844;8.966;2023-07-02T12:54:28;8.88;;;4.40;;
58384;SDS011;44185;47.844;8.966;2023-07-02T12:56:53;10.27;;;4.40;;
58384;SDS011;44185;47.844;8.966;2023-07-02T12:59:19;9.93;;;4.82;;
58384;SDS011;44185;47.844;8.966;2023-07-02T13:01:44;9.43;;;4.60;;
58384;SDS011;44185;47.844;8.966;2023-07-02T13:04:09;10.17;;;4.30;;
58384;SDS011;44185;47.844;8.966;2023-07-02T13:06:35;10.38;;;4.72;;
58384;SDS011;44185;47.844;8.966;2023-07-02T13:09:02;9.32;;;4.60;;
58384;SDS011;44185;47.844;8.966;2023-07-02T13:11:27;9.30;;;4.40;;
58384;SDS011;44185;47.844;8.966;2023-07-02T13:13:53;10.93;;;4.50;;
58384;SDS011;44185;47.844;8.966;2023-07-02T13:16:18;8.65;;;4.38;;
58384;SDS011;44185;47.844;8.966;2023-07-02T13:18:43;10.63;;;4.55;;
58384;SDS011;44185;47.844;8.966;2023-07-02T13:21:09;12.85;;;4.65;;
58384;SDS011;44185;47.844;8.966;2023-07-02T13:23:34;11.35;;;4.22;;
58384;SDS011;44185;47.844;8.966;2023-07-02T13:26:01;9.68;;;4.43;;
58384;SDS011;44185;47.844;8.966;2023-07-02T13:28:26;8.93;;;4.47;;
58384;SDS011;44185;47.844;8.966;2023-07-02T13:30:52;11.38;;;4.68;;
58384;SDS011;44185;47.844;8.966;2023-07-02T13:33:18;9.75;;;4.38;;
58384;SDS011;44185;47.844;8.966;2023-07-02T13:35:43;10.75;;;4.30;;
58384;SDS011;44185;47.844;8.966;2023-07-02T13:38:09;10.68;;;4.32;;
58384;SDS011;44185;47.844;8.966;2023-07-02T13:40:34;11.90;;;4.68;;
58384;SDS011;44185;47.844;8.966;2023-07-02T13:43:01;12.43;;;5.50;;
58384;SDS011;44185;47.844;8.966;2023-07-02T13:45:26;9.50;;;4.60;;
58384;SDS011;44185;47.844;8.966;2023-07-02T13:47:52;9.90;;;4.65;;
58384;SDS011;44185;47.844;8.966;2023-07-02T13:50:18;11.20;;;4.55;;
58384;SDS011;44185;47.844;8.966;2023-07-02T13:52:44;10.90;;;4.93;;
58384;SDS011;44185;47.844;8.966;2023-07-02T13:55:09;11.43;;;5.00;;
58384;SDS011;44185;47.844;8.966;2023-07-02T13:57:34;12.40;;;5.07;;
58384;SDS011;44185;47.844;8.966;2023-07-02T14:00:02;10.55;;;4.93;;
58384;SDS011;44185;47.844;8.966;2023-07-02T14:02:28;8.77;;;4.28;;
58384;SDS011;44185;47.844;8.966;2023-07-02T14:04:53;9.55;;;4.80;;
58384;SDS011;44185;47.844;8.966;2023-07-02T14:07:19;12.32;;;5.43;;
58384;SDS011;44185;47.844;8.966;2023-07-02T14:09:44;10.88;;;4.82;;
58384;SDS011;44185;47.844;8.966;2023-07-02T14:12:10;8.68;;;4.10;;
58384;SDS011;44185;47.844;8.966;2023-07-02T14:14:35;8.15;;;4.22;;
58384;SDS011;44185;47.844;8.966;2023-07-02T14:17:02;11.25;;;5.28;;
58384;SDS011;44185;47.844;8.966;2023-07-02T14:19:28;9.82;;;4.40;;
58384;SDS011;44185;47.844;8.966;2023-07-02T14:21:53;12.35;;;5.10;;
58384;SDS011;44185;47.844;8.966;2023-07-02T14:24:18;10.70;;;4.25;;
58384;SDS011;44185;47.844;8.966;2023-07-02T14:26:44;10.95;;;4.40;;
58384;SDS011;44185;47.844;8.966;2023-07-02T14:29:09;9.85;;;4.97;;
58384;SDS011;44185;47.844;8.966;2023-07-02T14:31:35;7.78;;;3.90;;
58384;SDS011;44185;47.844;8.966;2023-07-02T14:34:02;11.37;;;4.33;;